Latest Weather Observations for Carnarvon

IDW60801

Issued at 5:33 pm WST Sunday 20 August 2017 (issued every 30 minutes, with the page automatically refreshed every 10 minutes)

About weather observations | Map of weather stations | Latest weather observations for WA | Other Formats
Station Details ID: 006011 Name: CARNARVON AIRPORT Lat: -24.89 Lon: 113.67 Height: 4.0 m
Data from the previous 72 hours. | See also: Recent months at Carnarvon
Date/Time
WST
Temp
°C
App
Temp
°C
Dew
Point
°C
Rel
Hum
%
Delta-T
°C
Wind Press
QNH
hPa
Press
MSL
hPa
Rain since
9am
mm
Dir  Spd
km/h
Gust
km/h
Spd
kts
Gust
kts
20/05:30pm 19.6 12.0 7.7 46 6.1 S 37 50 20 27 1018.1 - 0.0
20/05:00pm 20.0 12.2 8.2 46 6.1 S 39 50 21 27 1018.1 - 0.0
20/04:30pm 20.1 11.9 8.4 47 6.1 S 41 50 22 27 1018.1 - 0.0
20/04:00pm 20.6 12.5 8.8 46 6.2 S 41 50 22 27 1018.2 - 0.0
20/03:30pm 20.5 12.6 9.4 49 5.9 S 41 50 22 27 1018.4 - 0.0
20/03:00pm 20.7 13.6 9.7 49 5.9 S 37 48 20 26 1018.7 1018.7 0.0
20/02:30pm 20.7 13.2 9.6 49 5.9 S 39 50 21 27 1019.1 - 0.0
20/02:00pm 19.2 12.0 10.7 58 4.6 S 39 50 21 27 1019.7 - 0.0
20/01:30pm 19.4 12.4 10.0 54 5.0 SSW 37 46 20 25 1020.0 - 0.0
20/01:00pm 20.0 13.4 10.1 53 5.3 S 35 46 19 25 1020.5 - 0.0
20/12:35pm 21.5 13.6 2.5 28 8.9 SSE 33 52 18 28 1021.0 - 0.0
20/12:30pm 21.4 13.6 2.6 29 8.8 SSE 33 43 18 23 1021.3 - 0.0
20/12:00pm 20.7 13.1 3.7 32 8.1 SE 33 44 18 24 1022.0 1022.0 0.0
20/11:30am 19.7 12.7 4.2 36 7.4 SE 30 44 16 24 1022.5 - 0.0
20/11:00am 19.4 12.6 4.9 38 7.0 SE 30 44 16 24 1023.3 - 0.0
20/10:30am 18.6 11.9 5.4 42 6.4 SE 30 41 16 22 1023.6 - 0.0
20/10:00am 17.5 10.4 5.7 46 5.7 SE 32 41 17 22 1024.0 - 0.0
20/09:30am 16.6 9.4 6.1 50 5.1 SE 33 43 18 23 1024.1 - 0.0
20/09:00am 16.0 9.2 6.8 54 4.5 SE 32 41 17 22 1024.5 1024.5 0.2
20/08:30am 14.6 8.5 6.5 58 3.9 SE 28 37 15 20 1024.2 - 0.2
20/08:00am 13.0 7.3 6.5 64 3.1 SE 26 32 14 17 1024.0 - 0.2
20/07:30am 11.7 7.2 6.1 68 2.6 SE 19 26 10 14 1023.9 - 0.2
20/07:00am 10.1 5.9 5.7 74 2.0 SE 17 20 9 11 1023.4 - 0.2
20/06:30am 9.8 5.5 5.4 74 2.0 SE 17 19 9 10 1023.4 - 0.2
20/06:00am 10.4 6.6 5.6 72 2.2 SE 15 19 8 10 1023.3 1023.3 0.2
20/05:30am 10.7 6.8 5.4 70 2.4 SE 15 19 8 10 1023.0 - 0.2
20/05:00am 11.3 7.0 5.4 67 2.7 SE 17 22 9 12 1022.8 - 0.2
20/04:30am 11.5 6.9 5.4 66 2.8 SE 19 24 10 13 1022.5 - 0.2
20/04:00am 11.5 7.6 5.4 66 2.8 SE 15 20 8 11 1022.7 - 0.2
20/03:30am 12.0 7.4 5.5 64 3.0 SE 19 24 10 13 1022.4 - 0.2
20/03:00am 12.3 7.7 5.6 63 3.1 SE 19 24 10 13 1022.7 1022.7 0.2
20/02:30am 12.8 8.0 5.7 62 3.3 SSE 20 28 11 15 1022.9 - 0.2
20/02:00am 13.2 8.5 6.0 61 3.4 SE 20 26 11 14 1022.9 - 0.2
20/01:30am 13.7 8.3 6.4 61 3.5 SE 24 32 13 17 1022.6 - 0.2
20/01:00am 14.2 8.1 6.7 60 3.6 SSE 28 37 15 20 1022.5 - 0.2
20/12:30am 14.5 9.8 7.8 64 3.3 SE 22 33 12 18 1022.3 - 0.2
20/12:00am 14.8 10.1 7.7 62 3.5 SSE 22 28 12 15 1022.4 1022.4 0.2
 
Date/Time
WST
Temp
°C
App
Temp
°C
Dew
Point
°C
Rel
Hum
%
Delta-T
°C
Wind Press
QNH
hPa
Press
MSL
hPa
Rain since
9am
mm
Dir  Spd
km/h
Gust
km/h
Spd
kts
Gust
kts
19/11:30pm 15.2 9.6 7.3 59 3.9 SSE 26 33 14 18 1022.3 - 0.2
19/11:00pm 15.2 9.4 8.0 62 3.6 S 28 33 15 18 1022.4 - 0.2
19/10:30pm 15.4 10.1 8.5 63 3.5 S 26 35 14 19 1022.3 - 0.2
19/10:00pm 15.7 10.2 9.3 65 3.3 S 28 33 15 18 1022.3 - 0.2
19/09:30pm 15.9 10.3 8.6 62 3.7 S 28 39 15 21 1022.4 - 0.2
19/09:00pm 16.0 10.3 8.5 61 3.8 S 28 37 15 20 1021.9 1021.9 0.2
19/08:30pm 16.3 10.0 9.1 62 3.7 S 32 39 17 21 1021.8 - 0.2
19/08:00pm 16.1 10.9 8.9 62 3.7 S 26 33 14 18 1021.7 - 0.2
19/07:30pm 16.3 12.3 10.6 69 3.0 S 22 33 12 18 1021.2 - 0.2
19/07:00pm 17.3 11.4 9.2 59 4.2 SSE 30 43 16 23 1020.8 - 0.2
19/06:30pm 17.8 12.6 8.7 55 4.7 S 26 35 14 19 1020.6 - 0.2
19/06:00pm 17.7 12.9 8.8 56 4.6 S 24 32 13 17 1020.1 1020.1 0.2
19/05:30pm 18.2 12.8 8.2 52 5.1 S 26 35 14 19 1019.8 - 0.2
19/05:00pm 19.1 14.3 8.9 51 5.3 S 24 33 13 18 1019.6 - 0.2
19/04:30pm 19.5 13.6 9.2 51 5.4 S 30 39 16 21 1019.3 - 0.2
19/04:00pm 19.8 13.7 8.2 47 6.0 S 30 37 16 20 1019.1 - 0.2
19/03:30pm 19.6 13.5 8.4 48 5.8 SSW 30 37 16 20 1019.1 - 0.2
19/03:00pm 19.9 14.4 9.3 50 5.6 S 28 37 15 20 1019.2 1019.2 0.2
19/02:30pm 20.0 13.6 8.5 47 6.0 S 32 39 17 21 1019.2 - 0.2
19/02:00pm 19.6 15.0 9.6 52 5.3 S 24 32 13 17 1019.4 - 0.2
19/01:30pm 19.9 14.7 9.0 49 5.7 S 26 32 14 17 1019.7 - 0.2
19/01:00pm 19.8 15.1 9.2 50 5.6 S 24 30 13 16 1019.8 - 0.2
19/12:30pm 19.4 14.1 8.4 49 5.7 S 26 32 14 17 1020.2 - 0.2
19/12:00pm 18.9 13.0 9.1 53 5.1 S 30 37 16 20 1020.6 1020.6 0.2
19/11:30am 19.8 14.7 10.5 55 5.0 S 28 35 15 19 1020.7 - 0.0
19/11:00am 18.9 13.5 11.0 60 4.3 S 30 39 16 21 1020.8 - 0.0
19/10:30am 18.6 14.7 10.8 60 4.2 S 22 30 12 16 1021.0 - 0.0
19/10:00am 17.5 13.1 11.6 68 3.2 S 26 35 14 19 1021.1 - 0.0
19/09:30am 17.4 15.2 12.1 71 2.9 S 15 20 8 11 1021.0 - 0.0
19/09:25am 17.3 15.0 11.8 70 3.0 S 15 20 8 11 1021.0 - 0.0
19/09:05am 16.8 14.2 12.0 73 2.6 SSE 17 20 9 11 1020.9 - 0.0
19/09:00am 16.5 14.4 12.3 76 2.3 SSE 15 20 8 11 1020.8 1020.8 1.2
19/08:30am 15.9 12.2 12.6 81 1.8 S 24 33 13 18 1020.6 - 1.2
19/08:00am 16.7 12.6 11.5 71 2.8 S 24 33 13 18 1020.2 - 1.2
19/07:30am 16.4 12.7 12.6 78 2.1 SSW 24 32 13 17 1019.9 - 1.2
19/07:00am 14.7 13.4 13.6 93 0.6 SE 13 20 7 11 1019.4 - 1.2
19/06:30am 14.9 13.6 13.6 92 0.7 SSE 13 17 7 9 1019.2 - 1.2
19/06:15am 15.3 12.2 13.5 89 1.0 S 22 33 12 18 1019.1 - 1.2
19/06:00am 15.3 14.5 13.9 91 0.8 SSW 11 30 6 16 1019.1 1019.1 1.2
19/05:56am 15.4 15.6 14.3 93 0.6 SSW 6 11 3 6 1019.1 - 1.0
19/05:30am 15.2 14.0 14.0 92 0.7 SE 13 17 7 9 1018.6 - 0.4
19/05:00am 15.2 14.4 14.1 93 0.6 SSE 11 17 6 9 1018.3 - 0.2
19/04:30am 15.5 14.0 14.1 91 0.8 S 15 20 8 11 1018.3 - 0.2
19/04:00am 15.3 12.7 13.3 88 1.1 S 19 24 10 13 1018.0 - 0.2
19/03:47am 15.7 12.4 13.9 89 1.0 S 24 35 13 19 1018.0 - 0.2
19/03:30am 15.7 12.5 14.3 91 0.8 S 24 35 13 19 1018.0 - 0.2
19/03:00am 16.7 14.0 13.5 81 1.8 S 20 26 11 14 1018.0 1018.0 0.0
19/02:30am 16.4 13.0 13.7 84 1.5 S 24 30 13 16 1017.9 - 0.0
19/02:00am 16.4 12.8 14.1 86 1.3 S 26 35 14 19 1018.0 - 0.0
19/01:30am 17.1 13.7 14.8 86 1.3 SW 26 37 14 20 1017.8 - 0.0
19/01:00am 17.4 15.5 13.1 76 2.4 SW 15 19 8 10 1017.9 - 0.0
19/12:30am 17.7 15.6 13.6 77 2.3 WSW 17 28 9 15 1018.0 - 0.0
19/12:00am 16.2 15.3 11.2 72 2.7 WSW 7 7 4 4 1018.0 1018.0 0.0
 
Date/Time
WST
Temp
°C
App
Temp
°C
Dew
Point
°C
Rel
Hum
%
Delta-T
°C
Wind Press
QNH
hPa
Press
MSL
hPa
Rain since
9am
mm
Dir  Spd
km/h
Gust
km/h
Spd
kts
Gust
kts
18/11:30pm 17.0 15.4 10.2 64 3.6 WSW 9 13 5 7 1018.0 - 0.0
18/11:00pm 17.3 15.2 9.9 62 3.9 WSW 11 13 6 7 1018.2 - 0.0
18/10:30pm 17.6 15.1 9.6 59 4.2 WSW 13 15 7 8 1018.4 - 0.0
18/10:00pm 17.3 14.7 9.2 59 4.2 WSW 13 15 7 8 1018.5 - 0.0
18/09:30pm 17.8 15.1 9.1 56 4.5 WSW 13 15 7 8 1018.4 - 0.0
18/09:00pm 17.9 15.5 9.9 59 4.2 WSW 13 17 7 9 1018.5 1018.5 0.0
18/08:30pm 18.1 15.7 10.0 59 4.3 WSW 13 19 7 10 1018.5 - 0.0
18/08:00pm 17.8 15.5 10.5 62 3.9 SW 13 15 7 8 1018.0 - 0.0
18/07:30pm 18.0 15.7 10.3 60 4.1 SW 13 17 7 9 1017.8 - 0.0
18/07:00pm 18.4 14.9 10.1 58 4.4 SW 19 26 10 14 1017.4 - 0.0
18/06:30pm 18.4 15.6 11.2 63 3.9 SW 17 20 9 11 1017.2 - 0.0
18/06:00pm 18.9 16.1 11.4 61 4.1 SW 17 20 9 11 1016.7 1016.7 0.0
18/05:30pm 19.8 16.3 11.0 57 4.8 SW 20 26 11 14 1016.3 - 0.0
18/05:00pm 20.3 16.6 10.3 52 5.4 SW 20 28 11 15 1016.2 - 0.0
18/04:30pm 20.5 16.2 10.6 53 5.4 SSW 24 30 13 16 1015.9 - 0.0
18/04:00pm 21.4 17.6 11.0 51 5.7 SSW 22 30 12 16 1015.9 - 0.0
18/03:30pm 20.7 17.7 11.9 57 4.9 SSW 19 26 10 14 1015.9 - 0.0
18/03:00pm 20.6 16.9 11.6 56 5.0 SW 22 28 12 15 1015.9 1015.9 0.0
18/02:30pm 20.6 17.0 10.7 53 5.4 SW 20 26 11 14 1015.8 - 0.0
18/02:00pm 20.3 16.5 11.0 55 5.1 SSW 22 26 12 14 1015.8 - 0.0
18/01:30pm 19.7 16.6 10.4 55 5.0 SSW 17 22 9 12 1016.0 - 0.0
18/01:00pm 20.9 16.8 10.2 50 5.8 SSW 22 28 12 15 1016.1 - 0.0
18/12:30pm 20.2 15.6 8.0 45 6.3 S 22 28 12 15 1016.4 - 0.0
18/12:00pm 20.6 14.8 4.5 34 7.8 S 24 28 13 15 1016.7 1016.7 0.0
18/11:30am 19.9 15.0 10.0 53 5.3 S 26 32 14 17 1017.2 - 0.0
18/11:00am 19.1 14.0 10.6 58 4.6 S 28 33 15 18 1017.5 - 0.0
18/10:30am 19.3 13.7 10.1 55 4.9 S 30 35 16 19 1017.5 - 0.0
18/10:00am 19.0 13.4 10.0 56 4.8 S 30 37 16 20 1017.6 - 0.0
18/09:30am 18.5 13.3 10.3 59 4.4 S 28 35 15 19 1017.3 - 0.0
18/09:00am 18.3 13.0 8.4 52 5.1 S 26 32 14 17 1017.0 1017.0 0.0
18/08:30am 17.6 11.9 8.2 54 4.8 S 28 37 15 20 1016.9 - 0.0
18/08:00am 17.0 11.8 7.2 52 4.9 S 24 32 13 17 1016.6 - 0.0
18/07:30am 16.1 11.6 8.4 60 3.9 S 22 30 12 16 1016.4 - 0.0
18/07:00am 15.1 11.1 9.2 68 3.0 S 20 24 11 13 1016.1 - 0.0
18/06:30am 14.6 10.9 9.3 70 2.7 S 19 22 10 12 1016.1 - 0.0
18/06:00am 14.3 10.7 9.8 74 2.3 S 19 20 10 11 1016.1 1016.1 0.0
18/05:30am 14.2 10.9 9.7 74 2.3 S 17 20 9 11 1015.9 - 0.0
18/05:00am 14.0 10.7 9.5 74 2.3 S 17 20 9 11 1015.8 - 0.0
18/04:30am 13.7 10.7 9.2 74 2.3 S 15 19 8 10 1015.7 - 0.0
18/04:00am 13.8 10.8 9.3 74 2.3 S 15 17 8 9 1015.7 - 0.0
18/03:30am 14.7 11.5 9.9 73 2.5 S 17 20 9 11 1015.8 - 0.0
18/03:00am 15.1 11.7 10.5 74 2.4 S 19 22 10 12 1015.8 1015.8 0.0
18/02:30am 14.9 11.8 10.3 74 2.4 S 17 20 9 11 1016.0 - 0.0
18/02:00am 14.9 12.0 10.9 77 2.1 S 17 20 9 11 1016.1 - 0.0
18/01:30am 15.0 12.0 10.8 76 2.2 SSE 17 22 9 12 1016.3 - 0.0
18/01:00am 15.7 12.1 10.4 71 2.8 S 20 24 11 13 1016.6 - 0.0
18/12:30am 15.8 11.6 9.8 67 3.1 S 22 28 12 15 1016.7 - 0.0
18/12:00am 16.1 11.5 9.8 66 3.3 S 24 28 13 15 1016.8 1016.8 0.0
 
Date/Time
WST
Temp
°C
App
Temp
°C
Dew
Point
°C
Rel
Hum
%
Delta-T
°C
Wind Press
QNH
hPa
Press
MSL
hPa
Rain since
9am
mm
Dir  Spd
km/h
Gust
km/h
Spd
kts
Gust
kts
17/11:30pm 16.1 11.3 10.2 68 3.1 S 26 32 14 17 1016.8 - 0.0
17/11:00pm 16.3 11.8 10.0 66 3.3 S 24 30 13 16 1017.1 - 0.0
17/10:30pm 16.5 11.9 9.6 63 3.6 S 24 33 13 18 1017.4 - 0.0
17/10:00pm 16.7 11.4 9.8 63 3.6 S 28 37 15 20 1017.3 - 0.0
17/09:30pm 17.2 11.7 9.1 59 4.2 S 28 37 15 20 1017.3 - 0.0
17/09:00pm 17.7 13.2 10.2 61 4.0 S 24 32 13 17 1017.2 1017.2 0.0
17/08:30pm 17.1 12.8 8.0 55 4.6 S 20 24 11 13 1017.0 - 0.0
17/08:00pm 16.8 12.7 8.8 59 4.1 S 20 24 11 13 1016.9 - 0.0
17/07:30pm 16.7 13.1 8.2 57 4.3 S 17 22 9 12 1016.5 - 0.0
17/07:00pm 17.0 13.4 8.4 57 4.4 S 17 24 9 13 1016.1 - 0.0
17/06:30pm 17.6 12.9 7.7 52 5.0 S 22 28 12 15 1015.8 - 0.0
17/06:00pm 18.3 13.0 6.6 46 5.8 S 24 32 13 17 1015.8 1015.8 0.0

Other Formats:

Comma delimited format used in spreadsheet applications
http://www.bom.gov.au/fwo/IDW60801/IDW60801.94300.axf

JavaScript Object Notation format (JSON) in row-major order
http://www.bom.gov.au/fwo/IDW60801/IDW60801.94300.json